Time;durP1;ratioP1;P1;durP2;ratioP2;P2;SDS_P1;SDS_P2;PMS_P1;PMS_P2;Temp;Humidity;BMP_temperature;BMP_pressure;BME280_temperature;BME280_humidity;BME280_pressure;Samples;Min_cycle;Max_cycle;Signal;HPM_P1;HPM_P2
2022/10/19 08:02:06;;;;;;;21.25;8.50;;;;;;;-144.40;100.00;60209.53;4984717;23;20063;-96
2022/10/19 08:18:17;;;;;;;27.00;8.23;;;;;;;-144.40;100.00;60209.53;5272060;23;20050;-96
2022/10/19 08:20:45;;;;;;;19.00;6.50;;;;;;;-144.40;100.00;60209.53;4952036;28;20059;-96
2022/10/19 08:26:24;;;;;;;18.50;6.53;;;;;;;-144.40;100.00;60209.53;5605946;23;20059;-96
2022/10/19 08:29:04;;;;;;;23.45;6.70;;;;;;;-144.40;100.00;60209.53;4945398;29;20072;-95
2022/10/19 08:37:07;;;;;;;;;;;;;;;;;;;;;
2022/10/19 08:40:30;;;;;;;18.13;5.43;;;;;;;-144.40;100.00;60209.53;4970229;28;20054;-95
2022/10/19 08:47:16;;;;;;;14.50;5.03;;;;;;;-144.40;100.00;60209.53;4905853;29;20052;-96
2022/10/19 08:49:54;;;;;;;19.08;5.78;;;;;;;-144.40;100.00;60209.53;4893206;29;20037;-96
2022/10/19 08:53:01;;;;;;;19.17;6.35;;;;;;;-144.40;100.00;60209.53;4884798;29;20037;-96
2022/10/19 08:56:31;;;;;;;;;;;;;;;;;;;;;
2022/10/19 09:07:44;;;;;;;17.67;4.63;;;;;;;-144.40;100.00;60209.53;4962299;29;20050;-96
2022/10/19 09:19:06;;;;;;;;;;;;;;;;;;;;;
2022/10/19 10:15:44;;;;;;;13.35;3.28;;;;;;;-144.40;100.00;60209.53;5004719;23;20043;-96
2022/10/19 10:26:19;;;;;;;12.93;3.08;;;;;;;-144.40;100.00;60209.53;5052285;23;20057;-94
2022/10/19 10:28:48;;;;;;;12.23;2.70;;;;;;;-144.40;100.00;60209.53;4929967;29;20059;-96
2022/10/19 10:31:20;;;;;;;13.00;3.80;;;;;;;-144.40;100.00;60209.53;4947555;29;20027;-95
2022/10/19 10:34:34;;;;;;;11.38;3.60;;;;;;;-144.40;100.00;60209.53;4945306;28;20503;-96
2022/10/19 10:37:23;;;;;;;10.95;3.08;;;;;;;-144.40;100.00;60209.53;4935030;29;20091;-94
2022/10/19 10:40:05;;;;;;;9.80;3.15;;;;;;;-144.40;100.00;60209.53;4989548;23;20035;-96
2022/10/19 11:16:22;;;;;;;6.63;2.58;;;;;;;-144.40;100.00;60209.53;4967323;29;20117;-93
2022/10/19 11:19:00;;;;;;;12.23;2.83;;;;;;;-144.40;100.00;60209.53;4974133;28;20024;-92
2022/10/19 11:22:06;;;;;;;14.68;2.55;;;;;;;-144.40;100.00;60209.53;4959985;29;20482;-94
2022/10/19 11:24:50;;;;;;;11.88;3.63;;;;;;;-144.40;100.00;60209.53;4952111;29;20031;-93
2022/10/19 11:27:24;;;;;;;15.30;3.22;;;;;;;-144.40;100.00;60209.53;4940453;29;20043;-92
2022/10/19 11:29:56;;;;;;;12.63;3.15;;;;;;;-144.40;100.00;60209.53;4942744;29;20386;-93
2022/10/19 11:32:59;;;;;;;;;;;;;;;-144.40;100.00;60209.53;4952454;28;20028;-96
2022/10/19 11:36:02;;;;;;;8.95;2.60;;;;;;;-144.40;100.00;60209.53;5193307;23;19923;-94
2022/10/19 11:39:37;;;;;;;9.68;2.90;;;;;;;-144.40;100.00;60209.53;5125638;23;20043;-95
2022/10/19 11:42:39;;;;;;;10.60;2.67;;;;;;;-144.40;100.00;60209.53;4991468;23;20130;-95
2022/10/19 11:45:20;;;;;;;8.43;2.47;;;;;;;-144.40;100.00;60209.53;4945158;29;20016;-94
2022/10/19 11:48:54;;;;;;;11.00;2.72;;;;;;;-144.40;100.00;60209.53;4968064;28;20032;-93
2022/10/19 11:51:50;;;;;;;;;;;;;;;;;;;;;
2022/10/19 11:55:03;;;;;;;6.95;2.30;;;;;;;-144.40;100.00;60209.53;4993534;23;20087;-96
2022/10/19 11:57:47;;;;;;;10.75;2.90;;;;;;;-144.40;100.00;60209.53;4968659;28;20047;-95
2022/10/19 12:00:23;;;;;;;13.48;2.70;;;;;;;-144.40;100.00;60209.53;4947392;29;20048;-94
2022/10/19 12:03:06;;;;;;;15.30;2.80;;;;;;;-144.40;100.00;60209.53;4951374;29;20016;-95
2022/10/19 12:05:50;;;;;;;12.38;2.55;;;;;;;-144.40;100.00;60209.53;4929712;29;20063;-96
2022/10/19 12:08:28;;;;;;;9.43;2.80;;;;;;;-144.40;100.00;60209.53;4920818;29;20036;-96
2022/10/19 12:11:23;;;;;;;8.68;2.08;;;;;;;-144.40;100.00;60209.53;4940602;29;20079;-96
2022/10/19 12:13:59;;;;;;;7.35;2.38;;;;;;;-144.40;100.00;60209.53;4929673;29;20070;-96
2022/10/19 12:17:21;;;;;;;9.80;2.33;;;;;;;-144.40;100.00;60209.53;4943211;29;20028;-94
2022/10/19 12:20:29;;;;;;;13.85;3.08;;;;;;;-144.40;100.00;60209.53;4870359;29;20469;-96
2022/10/19 12:23:01;;;;;;;10.07;3.95;;;;;;;-144.40;100.00;60209.53;4903524;29;20037;-96
2022/10/19 12:25:42;;;;;;;8.93;3.03;;;;;;;-144.40;100.00;60209.53;4937391;29;20028;-95
2022/10/19 12:28:37;;;;;;;16.90;3.15;;;;;;;-144.40;100.00;60209.53;4926850;29;20028;-95
2022/10/19 12:31:11;;;;;;;12.63;2.65;;;;;;;-144.40;100.00;60209.53;4941517;29;20499;-95
2022/10/19 12:34:20;;;;;;;10.73;3.00;;;;;;;-144.40;100.00;60209.53;4919463;29;20068;-95
2022/10/19 12:37:30;;;;;;;11.43;2.63;;;;;;;-144.40;100.00;60209.53;4893547;29;20107;-96
2022/10/19 12:40:09;;;;;;;6.22;2.58;;;;;;;-144.40;100.00;60209.53;4927926;29;20036;-94
2022/10/19 12:42:56;;;;;;;10.48;2.40;;;;;;;-144.40;100.00;60209.53;4930609;29;20049;-93
2022/10/19 12:45:46;;;;;;;6.43;2.67;;;;;;;-144.40;100.00;60209.53;4921353;29;20028;-92
2022/10/19 12:48:13;;;;;;;8.13;3.03;;;;;;;-144.40;100.00;60209.53;4924089;29;20032;-96
2022/10/19 12:50:52;;;;;;;13.35;2.60;;;;;;;-144.40;100.00;60209.53;4941256;29;20028;-95
2022/10/19 12:53:29;;;;;;;10.50;2.55;;;;;;;-144.40;100.00;60209.53;4933443;29;20036;-94
2022/10/19 12:56:13;;;;;;;14.38;2.53;;;;;;;-144.40;100.00;60209.53;4940927;29;20122;-94
2022/10/19 12:59:27;;;;;;;7.53;2.70;;;;;;;-144.40;100.00;60209.53;4929912;29;20391;-96
2022/10/19 13:02:21;;;;;;;10.27;2.70;;;;;;;-144.40;100.00;60209.53;4944280;29;20028;-96
2022/10/19 13:04:53;;;;;;;11.80;3.92;;;;;;;-144.40;100.00;60209.53;4948878;29;20042;-96
2022/10/19 13:07:21;;;;;;;8.90;2.65;;;;;;;-144.40;100.00;60209.53;4940851;29;20050;-95
2022/10/19 13:09:48;;;;;;;10.30;2.60;;;;;;;-144.40;100.00;60209.53;4923753;29;20103;-94
2022/10/19 13:12:13;;;;;;;8.13;2.72;;;;;;;-144.40;100.00;60209.53;4941312;29;20032;-95
2022/10/19 13:15:03;;;;;;;10.68;2.90;;;;;;;-144.40;100.00;60209.53;4920062;29;20051;-95
2022/10/19 13:17:44;;;;;;;10.25;2.67;;;;;;;-144.40;100.00;60209.53;4922235;29;20037;-94
2022/10/19 13:20:24;;;;;;;14.93;3.15;;;;;;;-144.40;100.00;60209.53;4924107;29;20032;-96
2022/10/19 13:23:22;;;;;;;10.73;3.05;;;;;;;-144.40;100.00;60209.53;4934869;29;20020;-96
2022/10/19 13:26:27;;;;;;;13.93;2.70;;;;;;;-144.40;100.00;60209.53;4945889;29;20036;-96
2022/10/19 13:29:03;;;;;;;7.95;2.80;;;;;;;-144.40;100.00;60209.53;4935338;29;20034;-96
2022/10/19 13:31:43;;;;;;;;;;;;;;;;;;;;;
2022/10/19 13:34:14;;;;;;;9.98;2.65;;;;;;;-144.40;100.00;60209.53;4927272;28;20131;-95
2022/10/19 13:36:59;;;;;;;14.07;2.97;;;;;;;-144.40;100.00;60209.53;4940109;29;20043;-95
2022/10/19 13:39:29;;;;;;;15.65;3.30;;;;;;;-144.40;100.00;60209.53;4923150;29;20070;-96
2022/10/19 13:41:56;;;;;;;11.00;2.70;;;;;;;-144.40;100.00;60209.53;4923463;29;20028;-95
2022/10/19 13:44:36;;;;;;;14.27;3.33;;;;;;;-144.40;100.00;60209.53;4946743;29;20024;-96
2022/10/19 13:47:19;;;;;;;9.10;2.70;;;;;;;-144.40;100.00;60209.53;4922874;29;20091;-96
2022/10/19 13:50:32;;;;;;;12.18;2.58;;;;;;;-144.40;100.00;60209.53;4925497;29;20029;-96
2022/10/19 13:53:07;;;;;;;8.43;2.70;;;;;;;-144.40;100.00;60209.53;4917136;29;20846;-96
2022/10/19 13:55:42;;;;;;;11.80;2.67;;;;;;;-144.40;100.00;60209.53;4933989;29;20088;-96
2022/10/19 13:58:33;;;;;;;8.77;2.67;;;;;;;-144.40;100.00;60209.53;4934602;29;20029;-96
2022/10/19 14:01:36;;;;;;;6.78;2.28;;;;;;;-144.40;100.00;60209.53;4938615;29;20036;-96
2022/10/19 14:04:42;;;;;;;10.90;3.10;;;;;;;-144.40;100.00;60209.53;4930118;29;20020;-96
2022/10/19 14:07:40;;;;;;;10.60;2.78;;;;;;;-144.40;100.00;60209.53;4979242;23;20527;-95
2022/10/19 14:10:18;;;;;;;7.32;2.10;;;;;;;-144.40;100.00;60209.53;4963126;29;20059;-96
2022/10/19 14:12:49;;;;;;;8.55;3.20;;;;;;;-144.40;100.00;60209.53;4964847;29;20054;-96
2022/10/19 14:20:37;;;;;;;16.40;3.83;;;;;;;-144.40;100.00;60209.53;5269019;23;20055;-96
2022/10/19 14:23:33;;;;;;;7.78;2.47;;;;;;;-144.40;100.00;60209.53;5589301;23;20046;-95
2022/10/19 14:26:28;;;;;;;10.35;2.83;;;;;;;-144.40;100.00;60209.53;4938310;28;20063;-96
2022/10/19 14:28:58;;;;;;;10.00;2.97;;;;;;;-144.40;100.00;60209.53;4919372;29;20511;-94
2022/10/19 14:32:18;;;;;;;11.45;3.05;;;;;;;-144.40;100.00;60209.53;4968139;28;20088;-96
2022/10/19 14:35:25;;;;;;;11.35;3.05;;;;;;;-144.40;100.00;60209.53;5003325;23;20053;-96
2022/10/19 14:38:04;;;;;;;14.00;3.45;;;;;;;-144.40;100.00;60209.53;4963272;29;20027;-96
2022/10/19 14:40:48;;;;;;;7.97;2.42;;;;;;;-144.40;100.00;60209.53;4985120;23;20036;-96
2022/10/19 14:44:07;;;;;;;;;;;;;;;;;;;;;
2022/10/19 14:46:33;;;;;;;11.10;3.80;;;;;;;-144.40;100.00;60209.53;5029913;23;20138;-93
2022/10/19 14:49:13;;;;;;;10.07;2.83;;;;;;;-144.40;100.00;60209.53;4954169;29;20091;-96
2022/10/19 14:51:56;;;;;;;10.13;2.42;;;;;;;-144.40;100.00;60209.53;4970454;28;20035;-95
2022/10/19 14:54:40;;;;;;;9.88;2.58;;;;;;;-144.40;100.00;60209.53;4962899;29;20389;-95
2022/10/19 14:57:20;;;;;;;6.53;2.10;;;;;;;-144.40;100.00;60209.53;4950498;29;20033;-96
2022/10/19 15:00:14;;;;;;;14.85;3.08;;;;;;;-144.40;100.00;60209.53;4964790;28;20058;-95
2022/10/19 15:02:46;;;;;;;11.85;2.67;;;;;;;-144.40;100.00;60209.53;4959134;28;20045;-95
2022/10/19 15:05:19;;;;;;;21.38;3.47;;;;;;;-144.40;100.00;60209.53;4971967;28;20027;-95
2022/10/19 15:07:45;;;;;;;12.05;2.70;;;;;;;-144.40;100.00;60209.53;4959502;29;20031;-95
2022/10/19 15:10:23;;;;;;;10.60;3.15;;;;;;;-144.40;100.00;60209.53;4964335;28;20054;-94
2022/10/19 15:12:51;;;;;;;14.10;3.28;;;;;;;-144.40;100.00;60209.53;4974621;28;20036;-95
2022/10/19 15:15:29;;;;;;;15.88;2.65;;;;;;;-144.40;100.00;60209.53;4964679;29;20046;-95
2022/10/19 15:18:03;;;;;;;19.58;3.63;;;;;;;-144.40;100.00;60209.53;4955395;28;20032;-95
2022/10/19 15:20:34;;;;;;;13.18;3.33;;;;;;;-144.40;100.00;60209.53;4956321;29;20425;-95
2022/10/19 15:23:00;;;;;;;;;;;;;;;-144.40;100.00;60209.53;4958382;28;20054;-94
2022/10/19 15:25:35;;;;;;;11.70;2.80;;;;;;;-144.40;100.00;60209.53;4956981;29;20365;-93
2022/10/19 15:28:33;;;;;;;12.90;3.75;;;;;;;-144.40;100.00;60209.53;4951366;29;20031;-96
2022/10/19 15:31:31;;;;;;;13.40;3.05;;;;;;;-144.40;100.00;60209.53;4952787;29;20286;-96
2022/10/19 15:33:59;;;;;;;19.38;3.67;;;;;;;-144.40;100.00;60209.53;4952187;29;20070;-95
2022/10/19 15:36:27;;;;;;;11.23;4.00;;;;;;;-144.40;100.00;60209.53;4957272;29;20023;-96
2022/10/19 15:39:07;;;;;;;16.80;3.80;;;;;;;-144.40;100.00;60209.53;4952070;28;20042;-95
2022/10/19 15:41:34;;;;;;;10.93;3.50;;;;;;;-144.40;100.00;60209.53;4975020;28;20477;-96
2022/10/19 15:44:28;;;;;;;10.38;2.55;;;;;;;-144.40;100.00;60209.53;4955331;29;20031;-96
2022/10/19 15:47:17;;;;;;;15.32;3.90;;;;;;;-144.40;100.00;60209.53;4968654;28;20031;-95
2022/10/19 15:49:43;;;;;;;18.77;3.45;;;;;;;-144.40;100.00;60209.53;4964177;28;20031;-95
2022/10/19 15:52:19;;;;;;;12.65;3.30;;;;;;;-144.40;100.00;60209.53;4957547;29;20041;-96
2022/10/19 15:54:52;;;;;;;15.40;3.20;;;;;;;-144.40;100.00;60209.53;4951460;29;20031;-95
2022/10/19 15:57:23;;;;;;;16.90;2.80;;;;;;;-144.40;100.00;60209.53;4948354;29;20031;-96
2022/10/19 15:59:53;;;;;;;15.38;3.40;;;;;;;-144.40;100.00;60209.53;4964038;28;20028;-96
2022/10/19 16:02:23;;;;;;;16.05;3.78;;;;;;;-144.40;100.00;60209.53;4969180;28;20038;-96
2022/10/19 16:04:50;;;;;;;11.73;3.40;;;;;;;-144.40;100.00;60209.53;4952089;29;20031;-95
2022/10/19 16:07:26;;;;;;;16.52;4.60;;;;;;;-144.40;100.00;60209.53;4953962;29;20470;-95
2022/10/19 16:09:57;;;;;;;19.70;4.13;;;;;;;-144.40;100.00;60209.53;4957651;28;20046;-96
2022/10/19 16:12:27;;;;;;;11.32;3.13;;;;;;;-144.40;100.00;60209.53;4955607;28;20046;-96
2022/10/19 16:14:56;;;;;;;22.40;3.63;;;;;;;-144.40;100.00;60209.53;4942406;29;20039;-96
2022/10/19 16:17:22;;;;;;;19.75;3.97;;;;;;;-144.40;100.00;60209.53;4953570;29;20035;-96
2022/10/19 16:19:48;;;;;;;15.77;3.70;;;;;;;-144.40;100.00;60209.53;4951476;29;20047;-95
2022/10/19 16:22:14;;;;;;;12.40;3.25;;;;;;;-144.40;100.00;60209.53;4956109;28;20130;-95
2022/10/19 16:24:40;;;;;;;13.68;3.28;;;;;;;-144.40;100.00;60209.53;4949157;29;20393;-93
2022/10/19 16:27:07;;;;;;;13.25;3.08;;;;;;;-144.40;100.00;60209.53;4955939;28;20122;-94
2022/10/19 16:29:33;;;;;;;12.63;2.90;;;;;;;-144.40;100.00;60209.53;4962571;28;20059;-93
2022/10/19 16:32:01;;;;;;;17.17;3.63;;;;;;;-144.40;100.00;60209.53;4965924;29;20023;-94
2022/10/19 16:34:26;;;;;;;21.83;3.53;;;;;;;-144.40;100.00;60209.53;4958905;29;20123;-95
2022/10/19 16:36:52;;;;;;;16.05;4.38;;;;;;;-144.40;100.00;60209.53;4954554;29;20126;-94
2022/10/19 16:39:18;;;;;;;14.48;3.67;;;;;;;-144.40;100.00;60209.53;4954619;29;20078;-96
2022/10/19 16:41:52;;;;;;;18.67;4.03;;;;;;;-144.40;100.00;60209.53;4957581;28;20024;-94
2022/10/19 16:44:18;;;;;;;15.65;3.42;;;;;;;-144.40;100.00;60209.53;4951837;29;21220;-94
2022/10/19 16:46:44;;;;;;;27.42;6.10;;;;;;;-144.40;100.00;60209.53;4951464;29;20028;-93
2022/10/19 16:49:09;;;;;;;16.55;3.47;;;;;;;-144.40;100.00;60209.53;4953054;29;20027;-95
2022/10/19 16:51:37;;;;;;;18.73;3.90;;;;;;;-144.40;100.00;60209.53;4968275;28;20565;-93
2022/10/19 16:54:04;;;;;;;17.10;3.47;;;;;;;-144.40;100.00;60209.53;4951814;29;20035;-93
2022/10/19 16:56:31;;;;;;;20.55;4.18;;;;;;;-144.40;100.00;60209.53;4954561;28;20031;-93
2022/10/19 16:59:00;;;;;;;16.52;3.67;;;;;;;-144.40;100.00;60209.53;4951808;29;20066;-95
2022/10/19 17:01:27;;;;;;;20.75;3.60;;;;;;;-144.40;100.00;60209.53;4969533;28;20035;-93
2022/10/19 17:03:52;;;;;;;25.40;4.05;;;;;;;-144.40;100.00;60209.53;4968898;28;20403;-94
2022/10/19 17:06:18;;;;;;;18.88;3.45;;;;;;;-144.40;100.00;60209.53;4952108;29;20023;-93
2022/10/19 17:08:45;;;;;;;15.35;3.53;;;;;;;-144.40;100.00;60209.53;4950125;28;20110;-92
2022/10/19 17:11:17;;;;;;;12.48;3.67;;;;;;;-144.40;100.00;60209.53;4968529;28;20030;-93
2022/10/19 17:13:44;;;;;;;17.17;4.10;;;;;;;-144.40;100.00;60209.53;4955186;28;20031;-91
2022/10/19 17:16:11;;;;;;;22.83;3.95;;;;;;;-144.40;100.00;60209.53;4970163;28;20028;-93
2022/10/19 17:18:37;;;;;;;23.48;4.68;;;;;;;-144.40;100.00;60209.53;4949278;28;20031;-93
2022/10/19 17:21:06;;;;;;;16.45;3.25;;;;;;;-144.40;100.00;60209.53;4953103;29;20030;-90
2022/10/19 17:23:32;;;;;;;18.85;3.58;;;;;;;-144.40;100.00;60209.53;4956818;28;20055;-91
2022/10/19 17:25:57;;;;;;;15.05;5.15;;;;;;;-144.40;100.00;60209.53;4952892;28;20051;-92
2022/10/19 17:28:23;;;;;;;24.13;5.25;;;;;;;-144.40;100.00;60209.53;4954178;28;20470;-91
2022/10/19 17:30:51;;;;;;;21.00;4.90;;;;;;;-144.40;100.00;60209.53;4955471;28;20028;-92
2022/10/19 17:33:17;;;;;;;16.02;3.85;;;;;;;-144.40;100.00;60209.53;4949624;29;20082;-92
2022/10/19 17:35:42;;;;;;;23.27;4.55;;;;;;;-144.40;100.00;60209.53;4953820;28;20317;-92
2022/10/19 17:38:08;;;;;;;16.80;4.80;;;;;;;-144.40;100.00;60209.53;4952566;28;20031;-92
2022/10/19 17:40:33;;;;;;;31.05;4.80;;;;;;;-144.40;100.00;60209.53;4952181;29;20423;-82
2022/10/19 17:42:58;;;;;;;;;;;;;;;-144.40;100.00;60209.53;4952437;28;20378;-82
2022/10/19 17:45:24;;;;;;;;;;;;;;;-144.40;100.00;60209.53;4951033;28;20372;-82
2022/10/19 17:47:49;;;;;;;17.97;5.30;;;;;;;-144.40;100.00;60209.53;4952174;28;20433;-82
2022/10/19 17:50:15;;;;;;;20.60;4.85;;;;;;;-144.40;100.00;60209.53;4953306;28;20051;-82
2022/10/19 17:52:40;;;;;;;26.27;5.07;;;;;;;-144.40;100.00;60209.53;4953060;29;20067;-82
2022/10/19 17:55:06;;;;;;;22.95;4.72;;;;;;;-144.40;100.00;60209.53;4952769;28;20058;-81
2022/10/19 17:57:34;;;;;;;14.00;3.72;;;;;;;-144.40;100.00;60209.53;4952779;28;20031;-82
2022/10/19 17:59:59;;;;;;;23.42;4.65;;;;;;;-144.40;100.00;60209.53;4952260;28;20050;-82
2022/10/19 18:02:25;;;;;;;12.93;4.30;;;;;;;-144.40;100.00;60209.53;4952399;28;20077;-82
2022/10/19 18:04:50;;;;;;;19.50;5.00;;;;;;;-144.40;100.00;60209.53;4951217;29;20122;-81
2022/10/19 18:07:16;;;;;;;17.98;5.25;;;;;;;-144.40;100.00;60209.53;4952205;28;20034;-81
2022/10/19 18:09:41;;;;;;;22.75;4.80;;;;;;;-144.40;100.00;60209.53;4950806;28;20027;-83
2022/10/19 18:12:12;;;;;;;18.73;5.28;;;;;;;-144.40;100.00;60209.53;4949126;29;20122;-82
2022/10/19 18:14:38;;;;;;;18.33;6.22;;;;;;;-144.40;100.00;60209.53;4952257;28;20027;-84
2022/10/19 18:17:03;;;;;;;25.00;6.72;;;;;;;-144.40;100.00;60209.53;4954200;28;20025;-85
2022/10/19 18:19:29;;;;;;;31.20;8.43;;;;;;;-144.40;100.00;60209.53;4952635;28;20039;-83
2022/10/19 18:21:54;;;;;;;21.98;6.22;;;;;;;-144.40;100.00;60209.53;4949913;28;20030;-82
2022/10/19 18:24:20;;;;;;;30.63;8.40;;;;;;;-144.40;100.00;60209.53;4950992;28;20035;-83
2022/10/19 18:26:47;;;;;;;27.17;7.93;;;;;;;-144.40;100.00;60209.53;4950953;28;20035;-82
2022/10/19 18:29:19;;;;;;;31.65;7.55;;;;;;;-144.40;100.00;60209.53;4951537;28;20087;-82
2022/10/19 18:31:50;;;;;;;20.33;7.30;;;;;;;-144.40;100.00;60209.53;4950408;28;20038;-83
2022/10/19 18:34:18;;;;;;;24.30;7.85;;;;;;;-144.40;100.00;60209.53;4952877;28;20031;-83
2022/10/19 18:36:44;;;;;;;19.75;7.43;;;;;;;-144.40;100.00;60209.53;4952626;28;20031;-83
2022/10/19 18:39:11;;;;;;;22.42;7.65;;;;;;;-144.40;100.00;60209.53;4951785;28;20034;-84
2022/10/19 18:41:37;;;;;;;30.08;9.27;;;;;;;-144.40;100.00;60209.53;4950920;29;20043;-85
2022/10/19 18:44:04;;;;;;;33.20;8.88;;;;;;;-144.40;100.00;60209.53;4953547;28;20027;-85
2022/10/19 18:46:34;;;;;;;27.63;9.77;;;;;;;-144.40;100.00;60209.53;4952867;28;20042;-85
2022/10/19 18:49:02;;;;;;;28.77;10.02;;;;;;;-144.40;100.00;60209.53;4953440;28;20030;-85
2022/10/19 18:51:27;;;;;;;23.65;8.88;;;;;;;-144.40;100.00;60209.53;4951707;28;20022;-85
2022/10/19 18:53:54;;;;;;;23.83;8.70;;;;;;;-144.40;100.00;60209.53;4951557;29;20391;-83
2022/10/19 18:56:26;;;;;;;39.33;12.40;;;;;;;-144.40;100.00;60209.53;4954251;28;20142;-95
2022/10/19 18:58:51;;;;;;;28.80;11.10;;;;;;;-144.40;100.00;60209.53;4956779;29;20166;-95
2022/10/19 19:01:21;;;;;;;37.33;12.68;;;;;;;-144.40;100.00;60209.53;4952766;29;20282;-95
2022/10/19 19:03:55;;;;;;;25.70;11.38;;;;;;;-144.40;100.00;60209.53;4970849;28;20029;-96
2022/10/19 19:06:23;;;;;;;30.00;13.10;;;;;;;-144.40;100.00;60209.53;4957278;29;20097;-96
2022/10/19 19:08:49;;;;;;;40.20;12.93;;;;;;;-144.40;100.00;60209.53;4941032;28;20129;-94
2022/10/19 19:11:21;;;;;;;35.22;12.32;;;;;;;-144.40;100.00;60209.53;4969936;28;20061;-96
2022/10/19 19:13:49;;;;;;;33.45;12.05;;;;;;;-144.40;100.00;60209.53;4960373;28;20114;-94
2022/10/19 19:16:15;;;;;;;31.00;14.60;;;;;;;-144.40;100.00;60209.53;4970726;28;20062;-94
2022/10/19 19:18:41;;;;;;;30.58;12.98;;;;;;;-144.40;100.00;60209.53;4950934;29;20039;-95
2022/10/19 19:21:28;;;;;;;29.13;13.05;;;;;;;-144.40;100.00;60209.53;4954667;29;20031;-93
2022/10/19 19:23:56;;;;;;;27.30;12.35;;;;;;;-144.40;100.00;60209.53;4961668;29;20027;-94
2022/10/19 19:26:25;;;;;;;31.98;14.15;;;;;;;-144.40;100.00;60209.53;4956413;29;20485;-95
2022/10/19 19:28:51;;;;;;;26.80;14.75;;;;;;;-144.40;100.00;60209.53;4955021;29;20552;-95
2022/10/19 19:31:17;;;;;;;36.65;15.10;;;;;;;-144.40;100.00;60209.53;4959405;29;20035;-95
2022/10/19 19:33:44;;;;;;;33.45;14.38;;;;;;;-144.40;100.00;60209.53;4959900;29;20095;-94
2022/10/19 19:36:12;;;;;;;29.83;14.23;;;;;;;-144.40;100.00;60209.53;4953108;29;20034;-94
2022/10/19 19:38:38;;;;;;;29.80;13.98;;;;;;;-144.40;100.00;60209.53;4954705;28;20113;-93
2022/10/19 19:41:09;;;;;;;38.63;15.10;;;;;;;-144.40;100.00;60209.53;4953589;29;20054;-95
2022/10/19 19:43:36;;;;;;;31.27;14.77;;;;;;;-144.40;100.00;60209.53;4953119;29;20027;-93
2022/10/19 19:46:07;;;;;;;27.23;13.63;;;;;;;-144.40;100.00;60209.53;4950891;29;20040;-94
2022/10/19 19:48:32;;;;;;;35.33;15.48;;;;;;;-144.40;100.00;60209.53;4952512;28;20037;-95
2022/10/19 19:50:58;;;;;;;31.92;14.70;;;;;;;-144.40;100.00;60209.53;4953530;28;20027;-95
2022/10/19 19:53:23;;;;;;;34.58;14.07;;;;;;;-144.40;100.00;60209.53;4952824;29;20548;-94
2022/10/19 19:55:49;;;;;;;39.90;15.75;;;;;;;-144.40;100.00;60209.53;4952514;29;20023;-94
2022/10/19 19:58:15;;;;;;;37.15;15.18;;;;;;;-144.40;100.00;60209.53;4951696;28;20083;-93
2022/10/19 20:00:42;;;;;;;29.67;14.57;;;;;;;-144.40;100.00;60209.53;4951323;29;20032;-94
2022/10/19 20:03:09;;;;;;;26.58;14.88;;;;;;;-144.40;100.00;60209.53;4953668;28;20058;-94
2022/10/19 20:05:35;;;;;;;37.88;16.83;;;;;;;-144.40;100.00;60209.53;4955980;28;20029;-93
2022/10/19 20:08:00;;;;;;;29.85;14.43;;;;;;;-144.40;100.00;60209.53;4947974;29;20023;-95
2022/10/19 20:10:26;;;;;;;37.58;16.13;;;;;;;-144.40;100.00;60209.53;4956187;28;20425;-95
2022/10/19 20:12:51;;;;;;;37.10;16.83;;;;;;;-144.40;100.00;60209.53;4954839;28;20441;-96
2022/10/19 20:15:17;;;;;;;44.08;16.02;;;;;;;-144.40;100.00;60209.53;4951135;29;20027;-93
2022/10/19 20:17:44;;;;;;;38.53;15.80;;;;;;;-144.40;100.00;60209.53;4956617;29;20063;-95
2022/10/19 20:20:11;;;;;;;36.72;15.63;;;;;;;-144.40;100.00;60209.53;4955231;29;20031;-95
2022/10/19 20:22:37;;;;;;;42.78;15.88;;;;;;;-144.40;100.00;60209.53;4955607;29;20027;-95
2022/10/19 20:25:03;;;;;;;33.92;15.40;;;;;;;-144.40;100.00;60209.53;4958230;29;20401;-95
2022/10/19 20:27:29;;;;;;;36.25;15.65;;;;;;;-144.40;100.00;60209.53;4957749;28;20031;-96
2022/10/19 20:29:57;;;;;;;31.67;15.77;;;;;;;-144.40;100.00;60209.53;4960464;28;20043;-96
2022/10/19 20:32:26;;;;;;;35.88;17.77;;;;;;;-144.40;100.00;60209.53;4966023;29;20027;-96
2022/10/19 20:34:52;;;;;;;36.30;16.52;;;;;;;-144.40;100.00;60209.53;4957820;28;20107;-96
2022/10/19 20:37:19;;;;;;;34.17;14.85;;;;;;;-144.40;100.00;60209.53;4961734;29;20047;-96
2022/10/19 20:39:45;;;;;;;40.22;17.27;;;;;;;-144.40;100.00;60209.53;4958067;29;20023;-96
2022/10/19 20:42:12;;;;;;;35.60;15.98;;;;;;;-144.40;100.00;60209.53;4962610;29;20038;-96
2022/10/19 20:44:38;;;;;;;36.65;17.00;;;;;;;-144.40;100.00;60209.53;4961369;29;20031;-96
2022/10/19 20:47:03;;;;;;;36.35;16.50;;;;;;;-144.40;100.00;60209.53;4961607;29;20186;-95
2022/10/19 20:49:29;;;;;;;32.47;16.80;;;;;;;-144.40;100.00;60209.53;4956876;29;20031;-96
2022/10/19 20:57:45;;;;;;;31.83;15.55;;;;;;;-144.40;100.00;60209.53;4313707;23;20056;-96
2022/10/19 21:03:49;;;;;;;;;;;;;;;;;;;;;
2022/10/19 21:07:03;;;;;;;33.72;16.17;;;;;;;-144.40;100.00;60209.53;4907763;29;20151;-93
2022/10/19 21:09:29;;;;;;;34.85;16.13;;;;;;;-144.40;100.00;60209.53;4891298;29;20113;-95
2022/10/19 21:11:55;;;;;;;31.50;15.55;;;;;;;-144.40;100.00;60209.53;4936768;29;20044;-95
2022/10/19 21:14:26;;;;;;;28.90;15.27;;;;;;;-144.40;100.00;60209.53;4940838;29;20517;-96
2022/10/19 21:16:52;;;;;;;27.35;14.65;;;;;;;-144.40;100.00;60209.53;4930525;29;20064;-95
2022/10/19 21:19:20;;;;;;;33.58;15.05;;;;;;;-144.40;100.00;60209.53;4925391;29;20032;-95
2022/10/19 21:21:49;;;;;;;32.08;16.17;;;;;;;-144.40;100.00;60209.53;4945370;29;20080;-94
2022/10/19 21:24:20;;;;;;;34.65;15.93;;;;;;;-144.40;100.00;60209.53;4939989;29;20036;-94
2022/10/19 21:26:46;;;;;;;33.33;16.25;;;;;;;-144.40;100.00;60209.53;4922750;29;20028;-95
2022/10/19 21:29:13;;;;;;;35.00;17.20;;;;;;;-144.40;100.00;60209.53;4935235;29;20104;-96
2022/10/19 21:31:42;;;;;;;43.67;14.98;;;;;;;-144.40;100.00;60209.53;4923228;29;20028;-94
2022/10/19 21:34:11;;;;;;;32.92;15.95;;;;;;;-144.40;100.00;60209.53;4938742;29;20596;-94
2022/10/19 21:36:37;;;;;;;34.17;16.27;;;;;;;-144.40;100.00;60209.53;4926941;29;20032;-96
2022/10/19 21:39:03;;;;;;;37.08;15.93;;;;;;;-144.40;100.00;60209.53;4927587;29;20024;-95
2022/10/19 21:41:29;;;;;;;41.70;16.25;;;;;;;-144.40;100.00;60209.53;4942771;29;20439;-94
2022/10/19 21:43:55;;;;;;;26.73;14.80;;;;;;;-144.40;100.00;60209.53;4944940;29;20035;-94
2022/10/19 21:46:22;;;;;;;39.58;17.48;;;;;;;-144.40;100.00;60209.53;4936928;29;20487;-96
2022/10/19 21:48:49;;;;;;;32.92;14.68;;;;;;;-144.40;100.00;60209.53;4933767;29;20032;-96
2022/10/19 21:51:25;;;;;;;31.92;16.38;;;;;;;-144.40;100.00;60209.53;4938459;29;20034;-95
2022/10/19 21:53:51;;;;;;;33.92;15.70;;;;;;;-144.40;100.00;60209.53;4938720;29;20486;-96
2022/10/19 21:56:16;;;;;;;34.47;15.82;;;;;;;-144.40;100.00;60209.53;4924752;29;20035;-96
2022/10/19 21:58:46;;;;;;;30.67;16.48;;;;;;;-144.40;100.00;60209.53;4928147;29;20513;-96
2022/10/19 22:01:13;;;;;;;29.85;16.67;;;;;;;-144.40;100.00;60209.53;4920243;29;20032;-96
2022/10/19 22:03:41;;;;;;;29.92;15.68;;;;;;;-144.40;100.00;60209.53;4939473;29;20075;-96
2022/10/19 22:06:07;;;;;;;31.05;16.95;;;;;;;-144.40;100.00;60209.53;4937026;29;20486;-96
2022/10/19 22:08:33;;;;;;;30.75;16.10;;;;;;;-144.40;100.00;60209.53;4937290;29;20087;-96
2022/10/19 22:11:05;;;;;;;26.63;14.88;;;;;;;-144.40;100.00;60209.53;4921103;29;20385;-95
2022/10/19 22:13:32;;;;;;;26.65;15.07;;;;;;;-144.40;100.00;60209.53;4920536;29;20032;-96
2022/10/19 22:16:04;;;;;;;27.35;15.55;;;;;;;-144.40;100.00;60209.53;4935645;29;21109;-96
2022/10/19 22:18:30;;;;;;;32.60;15.23;;;;;;;-144.40;100.00;60209.53;4921897;29;20029;-96
2022/10/19 22:20:56;;;;;;;26.15;14.77;;;;;;;-144.40;100.00;60209.53;4919663;29;20028;-96